Time;durP1;ratioP1;P1;durP2;ratioP2;P2;SDS_P1;SDS_P2;PMS_P1;PMS_P2;Temp;Humidity;BMP_temperature;BMP_pressure;BME280_temperature;BME280_humidity;BME280_pressure;Samples;Min_cycle;Max_cycle;Signal;HPM_P1;HPM_P2
2023/10/12 00:02:32;;;;;;;13.90;8.90;;;;;;;18.22;61.08;99918.38;110456;1261;22005;-83
2023/10/12 00:05:20;;;;;;;17.90;9.50;;;;;;;18.21;61.08;99913.71;109771;1268;21988;-85
2023/10/12 00:08:42;;;;;;;17.50;9.60;;;;;;;18.19;61.11;99911.91;109719;1270;22472;-84
2023/10/12 00:12:01;;;;;;;17.30;10.40;;;;;;;18.15;61.10;99905.90;109211;1274;23715;-84
2023/10/12 00:14:40;;;;;;;22.60;9.10;;;;;;;18.11;61.32;99907.73;108747;1281;22056;-84
2023/10/12 00:17:20;;;;;;;18.00;9.50;;;;;;;18.10;61.28;99907.45;108362;1285;21990;-84
2023/10/12 00:20:01;;;;;;;13.70;8.70;;;;;;;18.09;61.15;99905.27;108331;1285;23047;-83
2023/10/12 00:22:46;;;;;;;14.90;8.00;;;;;;;18.06;61.34;99898.80;108430;1281;22002;-84
2023/10/12 00:25:58;;;;;;;17.00;8.40;;;;;;;18.04;61.37;99892.98;108710;1281;23650;-83
2023/10/12 00:28:44;;;;;;;17.30;9.60;;;;;;;18.06;61.34;99890.73;108873;1276;22117;-83
2023/10/12 00:31:31;;;;;;;17.30;8.60;;;;;;;18.05;61.32;99887.06;109130;1277;23113;-85
2023/10/12 00:34:14;;;;;;;18.00;9.60;;;;;;;18.03;61.32;99880.74;109550;1270;22002;-84
2023/10/12 00:36:57;;;;;;;14.00;8.80;;;;;;;18.02;61.30;99876.06;110057;1265;22022;-85
2023/10/12 00:40:22;;;;;;;14.60;8.30;;;;;;;17.98;61.43;99878.28;109909;1268;22787;-84
2023/10/12 00:42:53;;;;;;;15.10;9.10;;;;;;;17.95;61.51;99873.93;109410;1273;21999;-83
2023/10/12 00:45:28;;;;;;;13.50;8.10;;;;;;;17.94;61.68;99872.98;108926;1277;22658;-83
2023/10/12 00:48:06;;;;;;;13.70;8.10;;;;;;;17.95;61.48;99874.13;109023;1273;22151;-83
2023/10/12 00:50:54;;;;;;;10.70;8.20;;;;;;;17.94;61.59;99872.77;109264;1273;22370;-85
2023/10/12 00:53:35;;;;;;;20.20;9.60;;;;;;;17.97;61.57;99871.17;109247;1271;23042;-84
2023/10/12 00:56:22;;;;;;;15.60;8.30;;;;;;;17.97;61.64;99870.09;109212;1268;22423;-84
2023/10/12 00:58:55;;;;;;;19.30;8.90;;;;;;;17.97;61.50;99865.33;109066;1277;22065;-84
2023/10/12 01:01:32;;;;;;;14.80;8.50;;;;;;;17.95;61.60;99857.17;109085;1276;23816;-84
2023/10/12 01:04:15;;;;;;;17.40;9.20;;;;;;;17.98;61.55;99859.08;109561;1272;21962;-84
2023/10/12 01:06:59;;;;;;;16.80;8.60;;;;;;;17.90;61.53;99849.13;109089;1277;22862;-86
2023/10/12 01:09:42;;;;;;;13.80;7.90;;;;;;;17.90;61.42;99849.34;109173;1277;21993;-84
2023/10/12 01:12:34;;;;;;;11.20;7.60;;;;;;;17.94;61.48;99858.19;109285;1277;22004;-83
2023/10/12 01:15:18;;;;;;;10.90;7.20;;;;;;;17.93;61.50;99852.11;109204;1277;21980;-83
2023/10/12 01:17:52;;;;;;;15.40;8.10;;;;;;;17.93;61.50;99845.39;109376;1273;22003;-83
2023/10/12 01:20:29;;;;;;;14.40;7.40;;;;;;;17.94;61.39;99841.13;109772;1270;23133;-82
2023/10/12 01:23:17;;;;;;;16.80;8.70;;;;;;;17.94;61.29;99844.13;109789;1265;23579;-80
2023/10/12 01:25:52;;;;;;;12.00;8.40;;;;;;;17.91;61.30;99835.71;110620;1262;21994;-82
2023/10/12 01:28:34;;;;;;;17.60;7.60;;;;;;;17.91;61.39;99838.71;110425;1262;23592;-84
2023/10/12 01:31:08;;;;;;;15.80;7.90;;;;;;;17.86;61.31;99823.23;110623;1262;23115;-82
2023/10/12 01:33:43;;;;;;;14.60;7.30;;;;;;;17.92;61.21;99836.17;110779;1262;24340;-82
2023/10/12 01:36:22;;;;;;;16.60;8.10;;;;;;;17.91;61.18;99836.05;110610;1262;23574;-81
2023/10/12 01:39:10;;;;;;;13.10;8.00;;;;;;;17.91;61.10;99828.52;110500;1257;23007;-81
2023/10/12 01:41:41;;;;;;;14.40;7.60;;;;;;;17.90;61.05;99821.69;110605;1263;23727;-83
2023/10/12 01:44:31;;;;;;;11.40;7.40;;;;;;;17.89;60.94;99820.50;109956;1268;22011;-83
2023/10/12 01:47:06;;;;;;;17.20;8.20;;;;;;;17.90;61.07;99814.85;109927;1268;23035;-82
2023/10/12 01:49:54;;;;;;;12.30;7.30;;;;;;;17.89;60.99;99820.85;109666;1265;22637;-83
2023/10/12 01:52:29;;;;;;;21.30;8.90;;;;;;;17.91;60.90;99826.02;109961;1268;21961;-82
2023/10/12 01:55:28;;;;;;;17.20;7.40;;;;;;;17.93;60.84;99822.35;109934;1268;23035;-85
2023/10/12 01:58:16;;;;;;;17.60;8.40;;;;;;;17.93;60.77;99817.55;110005;1268;22059;-85
2023/10/12 02:01:18;;;;;;;15.20;8.10;;;;;;;17.93;60.71;99815.80;110459;1263;21971;-84
2023/10/12 02:04:06;;;;;;;16.60;7.50;;;;;;;17.93;60.59;99815.14;110847;1257;21964;-84
2023/10/12 02:06:49;;;;;;;13.40;7.00;;;;;;;17.93;60.48;99816.16;111006;1257;21994;-83
2023/10/12 02:09:43;;;;;;;11.90;7.50;;;;;;;17.93;60.41;99812.10;110939;1257;21955;-85
2023/10/12 02:12:29;;;;;;;12.80;7.00;;;;;;;17.93;60.37;99810.92;110300;1264;22037;-84
2023/10/12 02:15:23;;;;;;;14.30;7.30;;;;;;;17.92;60.34;99807.60;110460;1264;21998;-85
2023/10/12 02:18:15;;;;;;;10.20;6.20;;;;;;;17.93;60.29;99806.31;110399;1263;21976;-82
2023/10/12 02:27:24;;;;;;;14.40;6.90;;;;;;;17.83;60.26;99817.31;109921;1267;22050;-84
2023/10/12 02:30:10;;;;;;;10.80;7.70;;;;;;;17.83;60.27;99812.76;110088;1263;21971;-85
2023/10/12 02:33:00;;;;;;;15.50;7.30;;;;;;;17.81;60.23;99812.30;110653;1258;23696;-83
2023/10/12 02:35:36;;;;;;;14.30;7.10;;;;;;;17.80;60.28;99810.27;109712;1269;21997;-84
2023/10/12 02:38:17;;;;;;;15.90;7.70;;;;;;;17.78;60.21;99806.73;109709;1269;22065;-82
2023/10/12 02:40:58;;;;;;;10.90;6.80;;;;;;;17.75;60.26;99813.48;109906;1269;23124;-85
2023/10/12 02:43:34;;;;;;;19.40;7.20;;;;;;;17.75;60.26;99812.62;109533;1272;23229;-83
2023/10/12 02:46:11;;;;;;;13.10;6.50;;;;;;;17.72;60.22;99810.33;109769;1268;23045;-83
2023/10/12 02:48:55;;;;;;;20.90;7.60;;;;;;;17.70;60.32;99806.31;109386;1274;22964;-84
2023/10/12 02:51:37;;;;;;;15.50;8.40;;;;;;;17.69;60.41;99813.23;109304;1274;22909;-83
2023/10/12 02:54:24;;;;;;;20.30;7.90;;;;;;;17.69;60.32;99819.59;109150;1274;21994;-85
2023/10/12 02:57:06;;;;;;;12.80;7.20;;;;;;;17.66;60.34;99821.71;109231;1274;23016;-86
2023/10/12 03:00:12;;;;;;;13.10;7.00;;;;;;;17.62;60.38;99817.08;109429;1274;22021;-82
2023/10/12 03:02:48;;;;;;;20.10;8.10;;;;;;;17.63;60.50;99813.71;109824;1268;22452;-83
2023/10/12 03:05:33;;;;;;;12.60;7.70;;;;;;;17.61;60.43;99806.45;109241;1276;21986;-83
2023/10/12 03:08:06;;;;;;;15.10;7.40;;;;;;;17.58;60.45;99803.13;109706;1270;21977;-83
2023/10/12 03:11:00;;;;;;;16.20;6.20;;;;;;;17.55;60.42;99804.58;109454;1270;21998;-81
2023/10/12 03:13:37;;;;;;;13.60;7.60;;;;;;;17.53;60.52;99808.45;110071;1266;21977;-80
2023/10/12 03:16:15;;;;;;;13.30;7.10;;;;;;;17.51;60.49;99796.41;110382;1257;23039;-81
2023/10/12 03:19:00;;;;;;;13.30;6.80;;;;;;;17.53;60.60;99790.99;109507;1273;22171;-84
2023/10/12 03:21:33;;;;;;;15.00;7.60;;;;;;;17.50;60.58;99791.80;108797;1278;21997;-83
2023/10/12 03:24:12;;;;;;;19.90;8.10;;;;;;;17.48;60.56;99788.59;109161;1275;23002;-82
2023/10/12 03:27:11;;;;;;;19.60;9.60;;;;;;;17.47;60.53;99792.38;109295;1275;21987;-84
2023/10/12 03:30:07;;;;;;;17.70;12.30;;;;;;;17.45;60.56;99792.84;109229;1275;22019;-85
2023/10/12 03:33:15;;;;;;;20.30;8.40;;;;;;;17.44;60.64;99794.88;109182;1275;22445;-83
2023/10/12 03:36:02;;;;;;;11.60;6.90;;;;;;;17.45;60.58;99797.27;109161;1270;22012;-83
2023/10/12 03:38:43;;;;;;;13.60;7.20;;;;;;;17.47;60.68;99792.23;109156;1274;23712;-82
2023/10/12 03:44:36;;;;;;;12.40;7.40;;;;;;;17.46;60.74;99779.06;110448;1265;22643;-83
2023/10/12 03:50:08;;;;;;;11.20;6.50;;;;;;;17.51;60.54;99789.77;110249;1265;21977;-84
2023/10/12 03:53:15;;;;;;;17.50;6.50;;;;;;;17.51;60.49;99785.35;110500;1265;21972;-83
2023/10/12 03:56:01;;;;;;;13.90;7.10;;;;;;;17.52;60.35;99781.56;110579;1265;23047;-83
2023/10/12 03:58:41;;;;;;;19.10;7.30;;;;;;;17.53;60.36;99776.60;110098;1265;21995;-83
2023/10/12 04:01:22;;;;;;;16.00;7.60;;;;;;;17.55;60.39;99770.52;110429;1265;23792;-84
2023/10/12 04:04:28;;;;;;;12.10;7.00;;;;;;;17.52;60.25;99774.39;110682;1258;21966;-83
2023/10/12 04:07:16;;;;;;;15.90;7.80;;;;;;;17.50;60.32;99780.02;110635;1264;22203;-84
2023/10/12 04:10:13;;;;;;;17.70;8.10;;;;;;;17.52;60.39;99781.09;110620;1262;21972;-82
2023/10/12 04:13:07;;;;;;;17.40;7.10;;;;;;;17.51;60.43;99783.27;110671;1262;23706;-83
2023/10/12 04:16:40;;;;;;;17.90;7.40;;;;;;;17.53;60.37;99785.89;110026;1268;22368;-83
2023/10/12 04:21:39;;;;;;;12.60;6.90;;;;;;;17.53;60.44;99793.52;108895;1278;23725;-84
2023/10/12 04:27:11;;;;;;;13.90;7.50;;;;;;;17.55;60.24;99788.95;109296;1274;23609;-87
2023/10/12 04:29:57;;;;;;;19.80;7.70;;;;;;;17.54;60.23;99785.52;109129;1278;21988;-83
2023/10/12 04:32:52;;;;;;;14.10;7.90;;;;;;;17.53;60.14;99788.40;109071;1277;22369;-85
2023/10/12 04:35:50;;;;;;;20.00;8.80;;;;;;;17.52;60.32;99789.16;109266;1273;22764;-86
2023/10/12 04:41:23;;;;;;;18.40;8.20;;;;;;;17.53;60.21;99792.11;109793;1269;24384;-85
2023/10/12 04:44:25;;;;;;;24.00;8.30;;;;;;;17.53;60.18;99788.07;109845;1265;23703;-85
2023/10/12 04:47:20;;;;;;;14.30;7.40;;;;;;;17.49;60.09;99791.54;110181;1263;21971;-84
2023/10/12 04:49:57;;;;;;;18.70;8.60;;;;;;;17.47;60.07;99790.92;110437;1263;22085;-84
2023/10/12 04:56:10;;;;;;;25.80;8.70;;;;;;;17.41;60.11;99801.81;110047;1268;21999;-83
2023/10/12 04:59:14;;;;;;;17.00;7.90;;;;;;;17.37;60.02;99804.88;109964;1256;23027;-85
2023/10/12 05:07:40;;;;;;;18.60;7.90;;;;;;;17.30;60.23;99814.05;109870;1266;21989;-85
2023/10/12 05:10:15;;;;;;;16.60;8.70;;;;;;;17.29;60.30;99819.73;110165;1263;22005;-82
2023/10/12 05:13:06;;;;;;;21.60;8.10;;;;;;;17.28;60.23;99822.59;109612;1273;23703;-83
2023/10/12 05:15:46;;;;;;;21.30;8.70;;;;;;;17.28;60.19;99823.36;109955;1270;22014;-83
2023/10/12 05:18:28;;;;;;;17.00;8.20;;;;;;;17.29;60.18;99820.81;109931;1266;23034;-84
2023/10/12 05:21:10;;;;;;;14.90;8.00;;;;;;;17.30;59.99;99824.71;110198;1266;22006;-83
2023/10/12 05:23:40;;;;;;;17.30;7.90;;;;;;;17.29;59.96;99828.84;110006;1266;23016;-83
2023/10/12 05:26:25;;;;;;;23.10;7.90;;;;;;;17.31;59.87;99826.77;110067;1266;23612;-83
2023/10/12 05:29:26;;;;;;;13.20;7.90;;;;;;;17.32;59.90;99826.88;109998;1256;21975;-81
2023/10/12 05:33:28;;;;;;;19.10;8.60;;;;;;;17.33;59.88;99831.23;110019;1268;21975;-85
2023/10/12 05:34:52;;;;;;;23.30;8.30;;;;;;;17.35;59.77;99829.13;109923;1268;23606;-81
2023/10/12 05:37:26;;;;;;;17.90;9.00;;;;;;;17.37;59.66;99825.97;109910;1268;24759;-83
2023/10/12 05:40:05;;;;;;;15.20;8.20;;;;;;;17.40;59.46;99823.70;109774;1267;24807;-82
2023/10/12 05:42:59;;;;;;;20.40;9.00;;;;;;;17.42;59.48;99829.36;110012;1268;21976;-84
2023/10/12 05:46:01;;;;;;;11.50;7.40;;;;;;;17.44;59.42;99837.64;109422;1272;21987;-83
2023/10/12 05:48:36;;;;;;;13.30;7.00;;;;;;;17.47;59.27;99837.74;109349;1272;22067;-83
2023/10/12 05:51:21;;;;;;;17.40;7.60;;;;;;;17.50;59.14;99837.32;109361;1272;23631;-84
2023/10/12 05:54:02;;;;;;;16.70;8.10;;;;;;;17.55;58.92;99839.08;109324;1272;22017;-85
2023/10/12 05:56:37;;;;;;;14.10;7.10;;;;;;;17.59;58.89;99840.73;109441;1270;22039;-84
2023/10/12 05:59:18;;;;;;;18.80;8.00;;;;;;;17.63;58.75;99847.34;109494;1274;22036;-83
2023/10/12 06:01:53;;;;;;;16.00;8.00;;;;;;;17.64;58.56;99852.30;109378;1274;23709;-82
2023/10/12 06:04:26;;;;;;;15.30;7.10;;;;;;;17.66;58.38;99853.73;109992;1268;21995;-83
2023/10/12 06:06:59;;;;;;;13.30;6.60;;;;;;;17.69;58.27;99859.30;109966;1268;22844;-84
2023/10/12 06:09:40;;;;;;;17.00;7.70;;;;;;;17.73;58.14;99867.14;109732;1268;22841;-81
2023/10/12 06:12:21;;;;;;;22.30;7.40;;;;;;;17.75;58.07;99869.45;109783;1268;22013;-83
2023/10/12 06:15:09;;;;;;;14.50;7.40;;;;;;;17.76;57.92;99861.64;109850;1265;22015;-81
2023/10/12 06:17:51;;;;;;;16.60;7.40;;;;;;;17.76;57.83;99868.30;110500;1260;23857;-80
2023/10/12 06:21:09;;;;;;;17.80;7.90;;;;;;;17.77;57.89;99881.41;110954;1260;22691;-81
2023/10/12 06:24:21;;;;;;;11.50;6.90;;;;;;;17.78;57.65;99888.41;110398;1266;22054;-82
2023/10/12 06:27:27;;;;;;;13.50;7.40;;;;;;;17.80;57.65;99887.58;110221;1266;23803;-80
2023/10/12 06:30:10;;;;;;;12.40;7.30;;;;;;;17.83;57.72;99896.50;110335;1266;23634;-82
2023/10/12 06:32:48;;;;;;;14.40;8.40;;;;;;;17.86;57.74;99894.19;110334;1265;21974;-85
2023/10/12 06:45:51;;;;;;;15.30;8.10;;;;;;;17.97;57.50;99901.40;110202;1266;22045;-83
2023/10/12 06:51:15;;;;;;;12.00;6.90;;;;;;;18.00;57.61;99906.34;109312;1274;23051;-80
2023/10/12 06:54:06;;;;;;;16.30;6.80;;;;;;;18.02;57.68;99920.42;108833;1278;21992;-80
2023/10/12 06:56:38;;;;;;;15.80;7.30;;;;;;;18.03;57.49;99927.00;108838;1278;22032;-81
2023/10/12 07:01:53;;;;;;;15.70;8.20;;;;;;;18.12;57.62;99931.27;108720;1282;22045;-82
2023/10/12 07:04:53;;;;;;;14.60;7.80;;;;;;;18.24;57.66;99930.02;108856;1279;21990;-85
2023/10/12 07:08:08;;;;;;;16.10;7.70;;;;;;;18.27;57.55;99934.50;108692;1281;21973;-82
2023/10/12 07:11:53;;;;;;;17.00;7.80;;;;;;;18.34;57.21;99932.04;108913;1275;22040;-85
2023/10/12 07:14:55;;;;;;;17.20;7.10;;;;;;;18.50;57.22;99944.75;108616;1283;22021;-84
2023/10/12 07:17:38;;;;;;;13.90;5.60;;;;;;;18.62;57.05;99946.14;108858;1279;23100;-84
2023/10/12 07:20:40;;;;;;;21.10;7.40;;;;;;;18.71;56.61;99941.85;109170;1275;23654;-84
2023/10/12 07:27:56;;;;;;;19.40;8.70;;;;;;;18.80;56.29;99946.86;108837;1286;22183;-82
2023/10/12 07:31:41;;;;;;;19.60;7.80;;;;;;;18.88;56.19;99950.81;110436;1253;23628;-84
2023/10/12 07:34:25;;;;;;;16.70;7.20;;;;;;;19.03;56.24;99954.05;110351;1266;23625;-82
2023/10/12 07:36:57;;;;;;;18.10;7.20;;;;;;;19.18;56.08;99959.23;110044;1266;22991;-88
2023/10/12 07:39:38;;;;;;;15.90;7.60;;;;;;;19.32;55.77;99968.34;111066;1252;21963;-82
2023/10/12 07:42:21;;;;;;;17.00;7.00;;;;;;;19.41;55.34;99977.10;111816;1265;22389;-83
2023/10/12 07:45:49;;;;;;;16.70;6.70;;;;;;;19.50;55.10;99983.07;110586;1250;22105;-87
2023/10/12 07:56:38;;;;;;;13.80;7.30;;;;;;;19.61;54.66;99989.83;108634;1284;22047;-88
2023/10/12 08:04:09;;;;;;;;;;;;;;;;;;;;;
2023/10/12 08:08:18;;;;;;;;;;;;;;;;;;;;;
2023/10/12 08:15:13;;;;;;;13.60;7.80;;;;;;;19.62;55.22;100024.48;107155;1302;22033;-84
2023/10/12 08:21:42;;;;;;;13.80;6.50;;;;;;;19.57;55.09;100037.97;107342;1299;23858;-78
2023/10/12 08:26:01;;;;;;;22.40;6.70;;;;;;;19.55;54.98;100036.91;107495;1299;22420;-82
2023/10/12 08:28:19;;;;;;;12.80;6.90;;;;;;;19.54;55.42;100032.73;107477;1298;22060;-85
2023/10/12 08:31:20;;;;;;;15.60;6.50;;;;;;;19.52;55.18;100035.84;107774;1295;22006;-89
2023/10/12 08:34:13;;;;;;;13.30;6.30;;;;;;;19.48;55.18;100040.23;107819;1293;22048;-87
2023/10/12 08:37:25;;;;;;;13.90;6.30;;;;;;;19.39;55.57;100056.11;108204;1288;22022;-88
2023/10/12 08:40:26;;;;;;;10.60;5.90;;;;;;;19.35;55.86;100061.23;108282;1287;23731;-85
2023/10/12 08:43:51;;;;;;;18.00;8.00;;;;;;;19.27;56.17;100068.74;108184;1285;22023;-84
2023/10/12 08:47:08;;;;;;;16.10;9.00;;;;;;;19.16;56.63;100085.61;108316;1288;22025;-87
2023/10/12 08:53:31;;;;;;;21.50;7.90;;;;;;;18.93;57.69;100113.52;108330;1281;22027;-83
2023/10/12 08:56:12;;;;;;;18.30;9.10;;;;;;;18.86;58.11;100120.93;108673;1281;22000;-85
2023/10/12 08:58:55;;;;;;;18.00;8.50;;;;;;;18.77;58.71;100130.70;109100;1274;22117;-84
2023/10/12 09:01:31;;;;;;;19.20;9.20;;;;;;;18.69;59.34;100141.36;109284;1275;22288;-78
2023/10/12 09:04:29;;;;;;;16.50;9.80;;;;;;;18.58;60.02;100149.41;109325;1273;22579;-82
2023/10/12 09:07:21;;;;;;;16.90;9.70;;;;;;;18.45;60.62;100145.27;109134;1273;22981;-79
2023/10/12 09:09:56;;;;;;;18.20;11.20;;;;;;;18.37;61.15;100152.73;109125;1273;22958;-80
2023/10/12 09:12:34;;;;;;;15.80;11.80;;;;;;;18.26;61.62;100163.19;109222;1263;21975;-80
2023/10/12 09:15:29;;;;;;;19.00;11.90;;;;;;;18.15;62.15;100168.58;109364;1273;22024;-80
2023/10/12 09:18:05;;;;;;;23.80;10.60;;;;;;;18.01;62.81;100166.80;108884;1280;22058;-80
2023/10/12 09:23:49;;;;;;;15.00;8.70;;;;;;;17.70;64.05;100156.44;108764;1280;23906;-80
2023/10/12 09:26:33;;;;;;;18.80;8.40;;;;;;;17.60;64.37;100143.63;108458;1286;23063;-80
2023/10/12 09:34:42;;;;;;;16.40;10.00;;;;;;;17.38;66.11;100126.71;108422;1286;22020;-82
2023/10/12 09:37:43;;;;;;;17.20;9.80;;;;;;;17.37;66.71;100142.76;108527;1286;22001;-80
2023/10/12 09:40:52;;;;;;;16.10;10.50;;;;;;;17.34;67.26;100149.27;108072;1292;22007;-81
2023/10/12 09:43:25;;;;;;;20.80;12.10;;;;;;;17.30;67.50;100151.86;108367;1287;24332;-80
2023/10/12 09:46:05;;;;;;;20.60;11.70;;;;;;;17.30;67.79;100155.52;108161;1285;23800;-81
2023/10/12 09:48:45;;;;;;;21.30;10.60;;;;;;;17.32;68.29;100152.74;107812;1292;23770;-85
2023/10/12 09:51:25;;;;;;;22.20;10.80;;;;;;;17.32;68.79;100135.73;108383;1286;23206;-82
2023/10/12 09:54:19;;;;;;;14.30;10.10;;;;;;;17.33;69.04;100138.42;108515;1283;24380;-85
2023/10/12 09:57:07;;;;;;;23.00;12.40;;;;;;;17.38;69.53;100148.70;108330;1289;22763;-84
2023/10/12 09:59:53;;;;;;;21.80;13.50;;;;;;;17.44;69.81;100153.35;108726;1285;23055;-85
2023/10/12 10:02:38;;;;;;;19.10;14.40;;;;;;;17.51;70.04;100149.15;108523;1282;22138;-84
2023/10/12 10:06:14;;;;;;;;;;;;;;;;;;;;;
2023/10/12 10:12:12;;;;;;;25.80;14.70;;;;;;;17.51;69.87;100138.98;108655;1282;22503;-86
2023/10/12 10:15:21;;;;;;;26.60;13.90;;;;;;;17.45;69.77;100134.09;108835;1282;22437;-84
2023/10/12 10:18:19;;;;;;;20.00;14.80;;;;;;;17.38;70.05;100139.31;108851;1282;21997;-87
2023/10/12 10:21:16;;;;;;;25.50;15.60;;;;;;;17.36;70.29;100143.85;108805;1282;22962;-89
2023/10/12 10:24:25;;;;;;;26.60;15.90;;;;;;;17.30;70.52;100139.20;104811;1282;5315636;-85
2023/10/12 10:27:19;;;;;;;25.50;15.70;;;;;;;17.32;71.07;100146.98;108915;1281;22013;-85
2023/10/12 10:30:36;;;;;;;24.60;16.50;;;;;;;17.32;71.22;100151.36;108855;1281;22016;-86
2023/10/12 10:33:22;;;;;;;20.80;15.90;;;;;;;17.30;71.18;100150.96;108808;1281;23627;-84
2023/10/12 10:36:13;;;;;;;28.70;17.50;;;;;;;17.29;71.48;100151.23;108678;1281;22416;-86
2023/10/12 10:41:54;;;;;;;22.30;16.50;;;;;;;17.29;71.71;100162.64;107808;1295;22631;-84
2023/10/12 10:44:32;;;;;;;24.60;14.10;;;;;;;17.26;72.11;100168.67;107637;1295;22014;-84
2023/10/12 10:47:24;;;;;;;15.90;10.80;;;;;;;17.19;72.21;100161.21;107832;1295;22770;-85
2023/10/12 10:50:21;;;;;;;24.40;13.80;;;;;;;17.23;72.29;100175.20;108069;1293;23069;-83
2023/10/12 10:53:08;;;;;;;21.80;13.00;;;;;;;17.15;72.51;100165.55;107672;1295;22041;-83
2023/10/12 10:55:55;;;;;;;25.00;14.10;;;;;;;17.22;72.75;100169.67;107897;1294;23060;-84
2023/10/12 10:58:25;;;;;;;27.50;14.70;;;;;;;17.25;73.01;100164.17;108139;1292;21989;-83
2023/10/12 11:01:14;;;;;;;15.30;13.50;;;;;;;17.21;72.93;100150.20;108108;1292;23132;-83
2023/10/12 11:03:49;;;;;;;16.00;12.10;;;;;;;17.29;72.92;100163.02;108012;1292;22156;-84
2023/10/12 11:06:36;;;;;;;20.80;11.70;;;;;;;17.21;73.03;100154.25;107990;1292;22012;-87
2023/10/12 11:12:36;;;;;;;26.70;14.80;;;;;;;17.22;73.38;100141.02;108409;1289;22018;-85
2023/10/12 11:15:20;;;;;;;23.60;15.40;;;;;;;17.17;73.43;100130.92;108359;1289;22021;-86
2023/10/12 11:18:15;;;;;;;19.70;13.10;;;;;;;17.18;73.54;100130.48;108201;1288;22400;-85
2023/10/12 11:21:11;;;;;;;19.10;14.40;;;;;;;17.20;73.58;100139.52;108832;1281;24210;-85
2023/10/12 11:24:09;;;;;;;19.80;11.60;;;;;;;17.20;73.61;100140.59;108725;1281;23779;-85
2023/10/12 11:27:09;;;;;;;;;;;;;;;;;;;;;
2023/10/12 11:33:20;;;;;;;23.00;11.70;;;;;;;17.28;73.64;100147.61;108473;1285;21998;-85
2023/10/12 11:39:21;;;;;;;19.90;10.40;;;;;;;17.34;73.65;100152.64;108035;1292;22438;-85
2023/10/12 11:42:17;;;;;;;18.40;10.70;;;;;;;17.33;73.50;100151.98;107899;1294;22010;-83
2023/10/12 11:44:53;;;;;;;19.20;11.60;;;;;;;17.31;73.26;100142.63;107889;1294;22012;-86
2023/10/12 11:47:30;;;;;;;18.80;11.90;;;;;;;17.28;73.28;100141.06;107435;1294;22271;-85
2023/10/12 11:50:09;;;;;;;21.10;12.30;;;;;;;17.28;73.33;100143.73;107849;1288;22373;-81
2023/10/12 11:52:50;;;;;;;16.10;11.60;;;;;;;17.30;73.61;100136.74;107802;1295;22081;-82
2023/10/12 11:55:31;;;;;;;20.20;11.00;;;;;;;17.28;73.67;100132.32;107684;1295;22041;-81
2023/10/12 11:58:07;;;;;;;20.30;11.20;;;;;;;17.35;73.67;100141.67;107828;1295;22036;-80
2023/10/12 12:00:55;;;;;;;14.70;10.20;;;;;;;17.35;73.61;100135.81;107432;1297;21999;-80
2023/10/12 12:03:45;;;;;;;19.80;10.90;;;;;;;17.37;73.63;100140.63;107733;1292;22033;-83
2023/10/12 12:06:25;;;;;;;15.40;11.20;;;;;;;17.43;73.70;100150.28;108329;1286;22052;-81
2023/10/12 12:09:07;;;;;;;15.20;10.50;;;;;;;17.45;73.86;100141.33;108576;1280;22184;-80
2023/10/12 12:11:54;;;;;;;17.50;11.20;;;;;;;17.50;73.96;100140.09;108881;1280;23689;-80
2023/10/12 12:14:25;;;;;;;19.70;10.60;;;;;;;17.56;73.85;100141.11;109149;1274;22780;-80
2023/10/12 12:17:06;;;;;;;13.20;10.30;;;;;;;17.62;73.66;100137.70;109056;1280;23692;-80
2023/10/12 12:19:46;;;;;;;16.90;11.10;;;;;;;17.66;73.45;100137.39;108829;1280;23788;-82
2023/10/12 12:22:42;;;;;;;21.50;12.00;;;;;;;17.65;73.37;100142.20;108759;1274;22971;-81
2023/10/12 12:25:32;;;;;;;13.70;10.70;;;;;;;17.62;73.00;100144.04;108728;1280;23672;-81
2023/10/12 12:28:19;;;;;;;20.50;11.90;;;;;;;17.59;72.96;100143.36;108937;1278;23732;-81
2023/10/12 12:31:00;;;;;;;15.30;10.70;;;;;;;17.55;72.97;100141.30;108734;1275;21990;-80
2023/10/12 12:33:52;;;;;;;17.50;11.70;;;;;;;17.55;73.20;100136.56;108922;1281;23064;-80
2023/10/12 12:36:38;;;;;;;17.10;11.60;;;;;;;17.57;73.18;100140.33;109366;1274;22035;-79
2023/10/12 12:39:12;;;;;;;16.80;12.00;;;;;;;17.59;73.15;100144.05;109038;1278;21999;-79
2023/10/12 12:41:47;;;;;;;16.90;12.00;;;;;;;17.59;73.01;100144.73;109146;1278;21999;-82
2023/10/12 12:44:24;;;;;;;13.40;11.40;;;;;;;17.62;73.12;100148.25;109422;1272;23074;-81
2023/10/12 12:47:10;;;;;;;12.40;10.50;;;;;;;17.63;73.10;100152.94;109494;1272;21993;-80
2023/10/12 12:50:11;;;;;;;25.20;11.50;;;;;;;17.63;73.02;100157.89;109564;1272;21998;-79
2023/10/12 12:52:57;;;;;;;19.10;13.00;;;;;;;17.61;73.07;100163.27;109566;1272;21987;-81
2023/10/12 12:55:36;;;;;;;17.30;12.20;;;;;;;17.61;73.07;100161.64;109387;1272;22024;-81
2023/10/12 12:58:15;;;;;;;22.10;11.70;;;;;;;17.62;72.99;100161.65;109695;1268;23114;-80
2023/10/12 13:01:00;;;;;;;;;;;;;;;;;;;;;
2023/10/12 13:03:55;;;;;;;18.30;12.50;;;;;;;17.54;73.02;100169.70;109844;1268;21985;-80
2023/10/12 13:06:50;;;;;;;16.00;12.50;;;;;;;17.53;73.14;100166.07;109687;1268;22178;-79
2023/10/12 13:10:28;;;;;;;;;;;;;;;;;;;;;
2023/10/12 13:14:08;;;;;;;16.70;11.20;;;;;;;17.49;73.55;100143.50;109456;1274;23653;-80
2023/10/12 13:17:30;;;;;;;17.40;11.00;;;;;;;17.57;73.55;100155.80;109226;1273;23636;-80
2023/10/12 13:20:22;;;;;;;13.50;10.10;;;;;;;17.59;73.48;100162.52;109339;1270;22002;-80
2023/10/12 13:23:17;;;;;;;14.90;10.20;;;;;;;17.61;73.42;100165.39;109348;1272;21995;-82
2023/10/12 13:26:30;;;;;;;23.20;17.50;;;;;;;17.60;73.33;100161.94;109331;1273;23710;-81
2023/10/12 13:29:14;;;;;;;13.60;12.00;;;;;;;17.59;73.35;100165.13;109255;1271;21980;-80
2023/10/12 13:31:53;;;;;;;17.20;10.90;;;;;;;17.62;73.43;100169.46;109282;1276;22303;-81
2023/10/12 13:34:34;;;;;;;14.30;9.70;;;;;;;17.62;73.19;100175.48;108587;1282;23663;-81
2023/10/12 13:37:22;;;;;;;11.00;9.60;;;;;;;17.59;73.15;100176.40;108625;1279;22010;-79
2023/10/12 13:39:52;;;;;;;12.20;9.20;;;;;;;17.59;73.33;100181.47;108712;1282;21997;-81
2023/10/12 13:43:08;;;;;;;;;;;;;;;;;;;;;
2023/10/12 13:45:56;;;;;;;15.60;10.90;;;;;;;17.61;73.41;100190.02;109163;1276;22003;-81
2023/10/12 13:49:12;;;;;;;14.50;9.90;;;;;;;17.60;73.37;100187.79;109233;1274;22502;-77
2023/10/12 13:51:58;;;;;;;13.60;10.10;;;;;;;17.61;73.18;100185.79;109212;1268;22028;-80
2023/10/12 13:58:01;;;;;;;12.80;8.50;;;;;;;17.57;73.18;100180.55;109934;1267;21989;-81
2023/10/12 14:00:55;;;;;;;11.90;8.00;;;;;;;17.58;73.19;100182.64;109507;1273;22031;-81
2023/10/12 14:03:29;;;;;;;13.00;8.40;;;;;;;17.60;73.18;100183.41;109409;1273;22001;-80
2023/10/12 14:06:08;;;;;;;15.60;8.90;;;;;;;17.62;73.10;100182.35;109368;1273;23608;-80
2023/10/12 14:08:46;;;;;;;13.50;8.90;;;;;;;17.65;72.93;100179.36;109161;1268;22010;-79
2023/10/12 14:11:33;;;;;;;17.20;9.00;;;;;;;17.64;72.72;100183.07;109152;1275;23641;-81
2023/10/12 14:14:24;;;;;;;;;;;;;;;17.61;72.58;100186.85;109234;1277;23592;-82
2023/10/12 14:17:34;;;;;;;11.80;9.80;;;;;;;17.47;72.78;100193.09;109261;1277;22756;-81
2023/10/12 14:20:08;;;;;;;11.70;8.50;;;;;;;17.45;72.78;100193.73;109584;1272;24340;-80
2023/10/12 14:23:05;;;;;;;12.30;9.00;;;;;;;17.43;72.61;100196.36;109412;1273;22002;-81
2023/10/12 14:26:07;;;;;;;12.40;8.80;;;;;;;17.40;72.64;100200.40;109084;1278;23650;-81
2023/10/12 14:29:03;;;;;;;12.00;6.90;;;;;;;17.35;72.49;100203.02;109169;1274;21987;-82
2023/10/12 14:31:51;;;;;;;9.80;7.10;;;;;;;17.33;72.62;100225.67;109024;1275;22010;-77
2023/10/12 14:34:38;;;;;;;8.10;6.20;;;;;;;17.29;72.43;100233.33;109066;1274;21987;-78
2023/10/12 14:37:13;;;;;;;12.00;6.30;;;;;;;17.17;72.18;100237.14;108947;1274;22474;-79
2023/10/12 14:40:10;;;;;;;10.60;6.80;;;;;;;17.01;71.84;100239.09;109157;1273;22234;-79
2023/10/12 14:42:51;;;;;;;10.80;7.00;;;;;;;16.83;71.82;100241.81;109267;1273;23028;-81
2023/10/12 14:45:49;;;;;;;11.40;7.40;;;;;;;16.69;72.02;100249.55;110040;1267;22443;-81